sensor_id;sensor_type;location;lat;lon;timestamp;temperature;humidity
55642;DHT22;41509;53.108;6.100;2023-09-30T00:01:40;13.30;99.90
55642;DHT22;41509;53.108;6.100;2023-09-30T00:04:06;13.40;99.90
55642;DHT22;41509;53.108;6.100;2023-09-30T00:06:32;13.40;99.90
55642;DHT22;41509;53.108;6.100;2023-09-30T00:09:01;13.40;99.90
55642;DHT22;41509;53.108;6.100;2023-09-30T00:11:26;13.40;99.90
55642;DHT22;41509;53.108;6.100;2023-09-30T00:13:52;13.40;99.90
55642;DHT22;41509;53.108;6.100;2023-09-30T00:16:23;13.30;99.90
55642;DHT22;41509;53.108;6.100;2023-09-30T00:18:48;13.30;99.90
55642;DHT22;41509;53.108;6.100;2023-09-30T00:21:14;13.30;99.90
55642;DHT22;41509;53.108;6.100;2023-09-30T00:23:40;13.30;99.90
55642;DHT22;41509;53.108;6.100;2023-09-30T00:26:06;13.30;99.90
55642;DHT22;41509;53.108;6.100;2023-09-30T00:28:31;13.40;99.90
55642;DHT22;41509;53.108;6.100;2023-09-30T00:30:57;13.30;99.90
55642;DHT22;41509;53.108;6.100;2023-09-30T00:33:23;13.30;99.90
55642;DHT22;41509;53.108;6.100;2023-09-30T00:35:49;13.30;99.90
55642;DHT22;41509;53.108;6.100;2023-09-30T00:38:14;13.30;99.90
55642;DHT22;41509;53.108;6.100;2023-09-30T00:40:49;13.30;99.90
55642;DHT22;41509;53.108;6.100;2023-09-30T00:43:21;13.30;99.90
55642;DHT22;41509;53.108;6.100;2023-09-30T00:45:48;13.30;99.90
55642;DHT22;41509;53.108;6.100;2023-09-30T00:48:17;13.40;99.90
55642;DHT22;41509;53.108;6.100;2023-09-30T00:50:43;13.40;99.90
55642;DHT22;41509;53.108;6.100;2023-09-30T00:53:09;13.30;99.90
55642;DHT22;41509;53.108;6.100;2023-09-30T00:55:35;13.40;99.90
55642;DHT22;41509;53.108;6.100;2023-09-30T00:58:02;13.40;99.90
55642;DHT22;41509;53.108;6.100;2023-09-30T01:00:28;13.30;99.90
55642;DHT22;41509;53.108;6.100;2023-09-30T01:02:56;13.40;99.90
55642;DHT22;41509;53.108;6.100;2023-09-30T01:05:25;13.40;99.90
55642;DHT22;41509;53.108;6.100;2023-09-30T01:07:53;13.40;99.90
55642;DHT22;41509;53.108;6.100;2023-09-30T01:10:28;13.40;99.90
55642;DHT22;41509;53.108;6.100;2023-09-30T01:12:53;13.40;99.90
55642;DHT22;41509;53.108;6.100;2023-09-30T01:15:19;13.40;99.90
55642;DHT22;41509;53.108;6.100;2023-09-30T01:17:48;13.50;99.90
55642;DHT22;41509;53.108;6.100;2023-09-30T01:20:15;13.50;99.90
55642;DHT22;41509;53.108;6.100;2023-09-30T01:22:45;13.50;99.90
55642;DHT22;41509;53.108;6.100;2023-09-30T01:25:11;13.50;99.90
55642;DHT22;41509;53.108;6.100;2023-09-30T01:27:39;13.50;99.90
55642;DHT22;41509;53.108;6.100;2023-09-30T01:30:06;13.50;99.90
55642;DHT22;41509;53.108;6.100;2023-09-30T01:32:31;13.50;99.90
55642;DHT22;41509;53.108;6.100;2023-09-30T01:34:57;13.50;99.90
55642;DHT22;41509;53.108;6.100;2023-09-30T01:37:28;13.50;99.90
55642;DHT22;41509;53.108;6.100;2023-09-30T01:39:55;13.60;99.90
55642;DHT22;41509;53.108;6.100;2023-09-30T01:42:21;13.50;99.90
55642;DHT22;41509;53.108;6.100;2023-09-30T01:44:46;13.60;99.90
55642;DHT22;41509;53.108;6.100;2023-09-30T01:47:14;13.60;99.90
55642;DHT22;41509;53.108;6.100;2023-09-30T01:49:40;13.60;99.90
55642;DHT22;41509;53.108;6.100;2023-09-30T01:52:08;13.60;99.90
55642;DHT22;41509;53.108;6.100;2023-09-30T01:54:34;13.60;99.90
55642;DHT22;41509;53.108;6.100;2023-09-30T01:57:00;13.60;99.90
55642;DHT22;41509;53.108;6.100;2023-09-30T01:59:25;13.70;99.90
55642;DHT22;41509;53.108;6.100;2023-09-30T02:01:53;13.70;99.90
55642;DHT22;41509;53.108;6.100;2023-09-30T02:04:19;13.70;99.90
55642;DHT22;41509;53.108;6.100;2023-09-30T02:06:45;13.70;99.90
55642;DHT22;41509;53.108;6.100;2023-09-30T02:09:10;13.80;99.90
55642;DHT22;41509;53.108;6.100;2023-09-30T02:11:36;13.80;99.90
55642;DHT22;41509;53.108;6.100;2023-09-30T02:14:03;13.80;99.90
55642;DHT22;41509;53.108;6.100;2023-09-30T02:16:29;13.80;99.90
55642;DHT22;41509;53.108;6.100;2023-09-30T02:18:57;13.80;99.90
55642;DHT22;41509;53.108;6.100;2023-09-30T02:21:23;13.80;99.90
55642;DHT22;41509;53.108;6.100;2023-09-30T02:23:49;13.80;99.90
55642;DHT22;41509;53.108;6.100;2023-09-30T02:26:15;13.90;99.90
55642;DHT22;41509;53.108;6.100;2023-09-30T02:28:40;13.90;99.90
55642;DHT22;41509;53.108;6.100;2023-09-30T02:31:08;13.90;99.90
55642;DHT22;41509;53.108;6.100;2023-09-30T02:33:34;13.90;99.90
55642;DHT22;41509;53.108;6.100;2023-09-30T02:36:07;13.90;99.90
55642;DHT22;41509;53.108;6.100;2023-09-30T02:38:40;13.90;99.90
55642;DHT22;41509;53.108;6.100;2023-09-30T02:41:06;13.90;99.90
55642;DHT22;41509;53.108;6.100;2023-09-30T02:43:32;13.90;99.90
55642;DHT22;41509;53.108;6.100;2023-09-30T02:45:58;13.90;99.90
55642;DHT22;41509;53.108;6.100;2023-09-30T02:48:27;13.90;99.90
55642;DHT22;41509;53.108;6.100;2023-09-30T02:50:53;13.90;99.90
55642;DHT22;41509;53.108;6.100;2023-09-30T02:53:20;13.90;99.90
55642;DHT22;41509;53.108;6.100;2023-09-30T02:55:48;13.90;99.90
55642;DHT22;41509;53.108;6.100;2023-09-30T02:58:15;13.90;99.90
55642;DHT22;41509;53.108;6.100;2023-09-30T03:00:40;13.90;99.90
55642;DHT22;41509;53.108;6.100;2023-09-30T03:03:06;13.80;99.90
55642;DHT22;41509;53.108;6.100;2023-09-30T03:05:32;13.80;99.90
55642;DHT22;41509;53.108;6.100;2023-09-30T03:07:59;13.80;99.90
55642;DHT22;41509;53.108;6.100;2023-09-30T03:10:26;13.70;99.90
55642;DHT22;41509;53.108;6.100;2023-09-30T03:12:56;13.70;99.90
55642;DHT22;41509;53.108;6.100;2023-09-30T03:15:27;13.70;99.90
55642;DHT22;41509;53.108;6.100;2023-09-30T03:17:52;13.70;99.90
55642;DHT22;41509;53.108;6.100;2023-09-30T03:20:23;13.60;99.90
55642;DHT22;41509;53.108;6.100;2023-09-30T03:22:50;13.60;99.90
55642;DHT22;41509;53.108;6.100;2023-09-30T03:25:18;13.60;99.90
55642;DHT22;41509;53.108;6.100;2023-09-30T03:27:44;13.60;99.90
55642;DHT22;41509;53.108;6.100;2023-09-30T03:30:15;13.60;99.90
55642;DHT22;41509;53.108;6.100;2023-09-30T03:32:45;13.50;99.90
55642;DHT22;41509;53.108;6.100;2023-09-30T03:35:11;13.50;99.90
55642;DHT22;41509;53.108;6.100;2023-09-30T03:37:44;13.50;99.90
55642;DHT22;41509;53.108;6.100;2023-09-30T03:40:11;13.50;99.90
55642;DHT22;41509;53.108;6.100;2023-09-30T03:42:46;13.40;99.90
55642;DHT22;41509;53.108;6.100;2023-09-30T03:45:14;13.40;99.90
55642;DHT22;41509;53.108;6.100;2023-09-30T03:47:41;13.40;99.90
55642;DHT22;41509;53.108;6.100;2023-09-30T03:50:08;13.40;99.90
55642;DHT22;41509;53.108;6.100;2023-09-30T03:52:44;13.40;99.90
55642;DHT22;41509;53.108;6.100;2023-09-30T03:55:11;13.40;99.90
55642;DHT22;41509;53.108;6.100;2023-09-30T03:57:37;13.30;99.90
55642;DHT22;41509;53.108;6.100;2023-09-30T04:00:03;13.30;99.90
55642;DHT22;41509;53.108;6.100;2023-09-30T04:02:33;13.30;99.90
55642;DHT22;41509;53.108;6.100;2023-09-30T04:05:00;13.30;99.90
55642;DHT22;41509;53.108;6.100;2023-09-30T04:07:29;13.30;99.90
55642;DHT22;41509;53.108;6.100;2023-09-30T04:09:55;13.30;99.90
55642;DHT22;41509;53.108;6.100;2023-09-30T04:12:21;13.30;99.90
55642;DHT22;41509;53.108;6.100;2023-09-30T04:14:49;13.30;99.90
55642;DHT22;41509;53.108;6.100;2023-09-30T04:17:17;13.30;99.90
55642;DHT22;41509;53.108;6.100;2023-09-30T04:19:46;13.30;99.90
55642;DHT22;41509;53.108;6.100;2023-09-30T04:22:12;13.30;99.90
55642;DHT22;41509;53.108;6.100;2023-09-30T04:24:41;13.30;99.90
55642;DHT22;41509;53.108;6.100;2023-09-30T04:27:07;13.40;99.90
55642;DHT22;41509;53.108;6.100;2023-09-30T04:29:33;13.30;99.90
55642;DHT22;41509;53.108;6.100;2023-09-30T04:32:00;13.30;99.90
55642;DHT22;41509;53.108;6.100;2023-09-30T04:34:25;13.30;99.90
55642;DHT22;41509;53.108;6.100;2023-09-30T04:36:53;13.30;99.90
55642;DHT22;41509;53.108;6.100;2023-09-30T04:39:18;13.30;99.90
55642;DHT22;41509;53.108;6.100;2023-09-30T04:41:44;13.20;99.90
55642;DHT22;41509;53.108;6.100;2023-09-30T04:44:10;13.30;99.90
55642;DHT22;41509;53.108;6.100;2023-09-30T04:46:37;13.30;99.90
55642;DHT22;41509;53.108;6.100;2023-09-30T04:49:09;13.20;99.90
55642;DHT22;41509;53.108;6.100;2023-09-30T04:51:34;13.30;99.90
55642;DHT22;41509;53.108;6.100;2023-09-30T04:54:05;13.30;99.90
55642;DHT22;41509;53.108;6.100;2023-09-30T04:56:32;13.30;99.90
55642;DHT22;41509;53.108;6.100;2023-09-30T04:59:01;13.20;99.90
55642;DHT22;41509;53.108;6.100;2023-09-30T05:01:29;13.30;99.90
55642;DHT22;41509;53.108;6.100;2023-09-30T05:03:58;13.20;99.90
55642;DHT22;41509;53.108;6.100;2023-09-30T05:06:24;13.20;99.90
55642;DHT22;41509;53.108;6.100;2023-09-30T05:08:52;13.20;99.90
55642;DHT22;41509;53.108;6.100;2023-09-30T05:11:18;13.20;99.90
55642;DHT22;41509;53.108;6.100;2023-09-30T05:13:44;13.20;99.90
55642;DHT22;41509;53.108;6.100;2023-09-30T05:16:10;13.20;99.90
55642;DHT22;41509;53.108;6.100;2023-09-30T05:18:38;13.20;99.90
55642;DHT22;41509;53.108;6.100;2023-09-30T05:21:04;13.10;99.90
55642;DHT22;41509;53.108;6.100;2023-09-30T05:23:30;13.10;99.90
55642;DHT22;41509;53.108;6.100;2023-09-30T05:26:02;13.10;99.90
55642;DHT22;41509;53.108;6.100;2023-09-30T05:28:28;13.10;99.90
55642;DHT22;41509;53.108;6.100;2023-09-30T05:30:53;13.10;99.90
55642;DHT22;41509;53.108;6.100;2023-09-30T05:33:19;13.10;99.90
55642;DHT22;41509;53.108;6.100;2023-09-30T05:35:48;13.10;99.90
55642;DHT22;41509;53.108;6.100;2023-09-30T05:38:13;13.10;99.90
55642;DHT22;41509;53.108;6.100;2023-09-30T05:40:39;13.00;99.90
55642;DHT22;41509;53.108;6.100;2023-09-30T05:43:07;13.00;99.90
55642;DHT22;41509;53.108;6.100;2023-09-30T05:45:33;13.00;99.90
55642;DHT22;41509;53.108;6.100;2023-09-30T05:48:02;13.00;99.90
55642;DHT22;41509;53.108;6.100;2023-09-30T05:50:38;13.00;99.90
55642;DHT22;41509;53.108;6.100;2023-09-30T05:53:08;13.00;99.90
55642;DHT22;41509;53.108;6.100;2023-09-30T05:55:36;12.90;99.90
55642;DHT22;41509;53.108;6.100;2023-09-30T05:58:09;12.90;99.90
55642;DHT22;41509;53.108;6.100;2023-09-30T06:00:35;12.90;99.90
55642;DHT22;41509;53.108;6.100;2023-09-30T06:03:01;12.90;99.90
55642;DHT22;41509;53.108;6.100;2023-09-30T06:05:27;12.90;99.90
55642;DHT22;41509;53.108;6.100;2023-09-30T06:08:04;12.90;99.90
55642;DHT22;41509;53.108;6.100;2023-09-30T06:10:33;12.90;99.90
55642;DHT22;41509;53.108;6.100;2023-09-30T06:12:58;12.90;99.90
55642;DHT22;41509;53.108;6.100;2023-09-30T06:15:25;12.90;99.90
55642;DHT22;41509;53.108;6.100;2023-09-30T06:17:55;12.90;99.90
55642;DHT22;41509;53.108;6.100;2023-09-30T06:20:21;12.90;99.90
55642;DHT22;41509;53.108;6.100;2023-09-30T06:22:51;12.90;99.90
55642;DHT22;41509;53.108;6.100;2023-09-30T06:25:19;12.90;99.90
55642;DHT22;41509;53.108;6.100;2023-09-30T06:27:49;12.90;99.90
55642;DHT22;41509;53.108;6.100;2023-09-30T06:30:16;12.90;99.90
55642;DHT22;41509;53.108;6.100;2023-09-30T06:32:42;12.90;99.90
55642;DHT22;41509;53.108;6.100;2023-09-30T06:35:08;13.00;99.90
55642;DHT22;41509;53.108;6.100;2023-09-30T06:37:39;13.00;99.90
55642;DHT22;41509;53.108;6.100;2023-09-30T06:40:06;13.00;99.90
55642;DHT22;41509;53.108;6.100;2023-09-30T06:42:33;13.10;99.90
55642;DHT22;41509;53.108;6.100;2023-09-30T06:44:59;13.10;99.90
55642;DHT22;41509;53.108;6.100;2023-09-30T06:47:25;13.10;99.90
55642;DHT22;41509;53.108;6.100;2023-09-30T06:49:53;13.10;99.90
55642;DHT22;41509;53.108;6.100;2023-09-30T06:52:28;13.20;99.90
55642;DHT22;41509;53.108;6.100;2023-09-30T06:54:55;13.20;99.90
55642;DHT22;41509;53.108;6.100;2023-09-30T06:57:20;13.20;99.90
55642;DHT22;41509;53.108;6.100;2023-09-30T06:59:46;13.30;99.90
55642;DHT22;41509;53.108;6.100;2023-09-30T07:02:11;13.30;99.90
55642;DHT22;41509;53.108;6.100;2023-09-30T07:04:42;13.30;99.90
55642;DHT22;41509;53.108;6.100;2023-09-30T07:07:10;13.30;99.90
55642;DHT22;41509;53.108;6.100;2023-09-30T07:09:35;13.40;99.90
55642;DHT22;41509;53.108;6.100;2023-09-30T07:12:02;13.40;99.90
55642;DHT22;41509;53.108;6.100;2023-09-30T07:14:27;13.50;99.90
55642;DHT22;41509;53.108;6.100;2023-09-30T07:16:53;13.50;99.90
55642;DHT22;41509;53.108;6.100;2023-09-30T07:19:19;13.60;99.90
55642;DHT22;41509;53.108;6.100;2023-09-30T07:21:45;13.60;99.90
55642;DHT22;41509;53.108;6.100;2023-09-30T07:24:12;13.70;99.90
55642;DHT22;41509;53.108;6.100;2023-09-30T07:26:39;13.70;99.90
55642;DHT22;41509;53.108;6.100;2023-09-30T07:29:11;13.70;99.90
55642;DHT22;41509;53.108;6.100;2023-09-30T07:31:37;13.80;99.90
55642;DHT22;41509;53.108;6.100;2023-09-30T07:34:02;13.90;99.90
55642;DHT22;41509;53.108;6.100;2023-09-30T07:36:31;14.00;99.90
55642;DHT22;41509;53.108;6.100;2023-09-30T07:38:56;14.00;99.90
55642;DHT22;41509;53.108;6.100;2023-09-30T07:41:28;14.10;99.90
55642;DHT22;41509;53.108;6.100;2023-09-30T07:43:59;14.10;99.90
55642;DHT22;41509;53.108;6.100;2023-09-30T07:46:28;14.20;99.90
55642;DHT22;41509;53.108;6.100;2023-09-30T07:48:59;14.30;99.90
55642;DHT22;41509;53.108;6.100;2023-09-30T07:51:25;14.30;99.90
55642;DHT22;41509;53.108;6.100;2023-09-30T07:53:54;14.20;99.90
55642;DHT22;41509;53.108;6.100;2023-09-30T07:56:19;14.40;99.90
55642;DHT22;41509;53.108;6.100;2023-09-30T07:58:45;14.50;99.90
55642;DHT22;41509;53.108;6.100;2023-09-30T08:01:10;14.60;99.90
55642;DHT22;41509;53.108;6.100;2023-09-30T08:03:36;14.70;99.90
55642;DHT22;41509;53.108;6.100;2023-09-30T08:06:07;14.70;99.90
55642;DHT22;41509;53.108;6.100;2023-09-30T08:08:37;14.80;99.90
55642;DHT22;41509;53.108;6.100;2023-09-30T08:11:02;14.80;99.90
55642;DHT22;41509;53.108;6.100;2023-09-30T08:13:34;14.90;99.90
55642;DHT22;41509;53.108;6.100;2023-09-30T08:16:00;15.00;99.90
55642;DHT22;41509;53.108;6.100;2023-09-30T08:18:28;15.00;99.90
55642;DHT22;41509;53.108;6.100;2023-09-30T08:20:54;15.10;99.90
55642;DHT22;41509;53.108;6.100;2023-09-30T08:23:19;15.20;99.90
55642;DHT22;41509;53.108;6.100;2023-09-30T08:25:46;15.20;99.90
55642;DHT22;41509;53.108;6.100;2023-09-30T08:28:12;15.30;99.90
55642;DHT22;41509;53.108;6.100;2023-09-30T08:30:38;15.40;99.90
55642;DHT22;41509;53.108;6.100;2023-09-30T08:33:09;15.50;99.90
55642;DHT22;41509;53.108;6.100;2023-09-30T08:35:36;15.50;99.90
55642;DHT22;41509;53.108;6.100;2023-09-30T08:38:02;15.60;99.90
55642;DHT22;41509;53.108;6.100;2023-09-30T08:40:29;15.70;99.90
55642;DHT22;41509;53.108;6.100;2023-09-30T08:42:55;15.70;99.90
55642;DHT22;41509;53.108;6.100;2023-09-30T08:45:21;15.80;99.90
55642;DHT22;41509;53.108;6.100;2023-09-30T08:47:47;15.90;99.90
55642;DHT22;41509;53.108;6.100;2023-09-30T08:50:14;16.00;99.90
55642;DHT22;41509;53.108;6.100;2023-09-30T08:52:41;16.10;99.90
55642;DHT22;41509;53.108;6.100;2023-09-30T08:55:11;16.20;99.90
55642;DHT22;41509;53.108;6.100;2023-09-30T08:57:41;16.20;99.90
55642;DHT22;41509;53.108;6.100;2023-09-30T09:00:09;16.30;99.90
55642;DHT22;41509;53.108;6.100;2023-09-30T09:02:41;16.40;99.90
55642;DHT22;41509;53.108;6.100;2023-09-30T09:05:07;16.50;99.90
55642;DHT22;41509;53.108;6.100;2023-09-30T09:07:34;16.50;99.90
55642;DHT22;41509;53.108;6.100;2023-09-30T09:10:12;16.60;99.90
55642;DHT22;41509;53.108;6.100;2023-09-30T09:12:42;16.70;99.90
55642;DHT22;41509;53.108;6.100;2023-09-30T09:15:22;16.80;99.90
55642;DHT22;41509;53.108;6.100;2023-09-30T09:17:48;16.80;99.90
55642;DHT22;41509;53.108;6.100;2023-09-30T09:20:24;16.90;99.90
55642;DHT22;41509;53.108;6.100;2023-09-30T09:22:54;16.90;99.90
55642;DHT22;41509;53.108;6.100;2023-09-30T09:25:24;17.00;99.90
55642;DHT22;41509;53.108;6.100;2023-09-30T09:27:51;17.00;99.90
55642;DHT22;41509;53.108;6.100;2023-09-30T09:30:24;17.10;99.90
55642;DHT22;41509;53.108;6.100;2023-09-30T09:33:06;17.20;99.90
55642;DHT22;41509;53.108;6.100;2023-09-30T09:35:34;17.20;99.90
55642;DHT22;41509;53.108;6.100;2023-09-30T09:40:30;17.30;99.90
55642;DHT22;41509;53.108;6.100;2023-09-30T09:42:57;17.40;99.90
55642;DHT22;41509;53.108;6.100;2023-09-30T09:45:27;17.50;99.90
55642;DHT22;41509;53.108;6.100;2023-09-30T09:47:54;17.60;99.90
55642;DHT22;41509;53.108;6.100;2023-09-30T09:50:21;17.60;99.90
55642;DHT22;41509;53.108;6.100;2023-09-30T09:52:51;17.70;99.90
55642;DHT22;41509;53.108;6.100;2023-09-30T09:55:18;17.80;99.90
55642;DHT22;41509;53.108;6.100;2023-09-30T09:57:45;17.90;99.90
55642;DHT22;41509;53.108;6.100;2023-09-30T10:00:15;18.00;99.90
55642;DHT22;41509;53.108;6.100;2023-09-30T10:02:41;18.00;99.90
55642;DHT22;41509;53.108;6.100;2023-09-30T10:05:07;18.00;99.90
55642;DHT22;41509;53.108;6.100;2023-09-30T10:07:37;18.20;99.90
55642;DHT22;41509;53.108;6.100;2023-09-30T10:10:11;18.10;99.90
55642;DHT22;41509;53.108;6.100;2023-09-30T10:12:42;18.00;99.90
55642;DHT22;41509;53.108;6.100;2023-09-30T10:18:01;18.10;99.90
55642;DHT22;41509;53.108;6.100;2023-09-30T10:20:33;18.20;99.90
55642;DHT22;41509;53.108;6.100;2023-09-30T10:25:46;18.60;99.90
55642;DHT22;41509;53.108;6.100;2023-09-30T10:36:34;18.70;99.90
55642;DHT22;41509;53.108;6.100;2023-09-30T10:39:01;18.70;99.90
55642;DHT22;41509;53.108;6.100;2023-09-30T10:51:56;18.20;99.90
55642;DHT22;41509;53.108;6.100;2023-09-30T10:54:26;18.10;99.90
55642;DHT22;41509;53.108;6.100;2023-09-30T10:56:53;17.90;99.90
55642;DHT22;41509;53.108;6.100;2023-09-30T10:59:19;17.80;99.90
55642;DHT22;41509;53.108;6.100;2023-09-30T11:01:45;17.60;99.90
55642;DHT22;41509;53.108;6.100;2023-09-30T11:04:11;17.60;99.90
55642;DHT22;41509;53.108;6.100;2023-09-30T11:06:41;17.50;99.90
55642;DHT22;41509;53.108;6.100;2023-09-30T11:09:07;17.60;99.90
55642;DHT22;41509;53.108;6.100;2023-09-30T11:11:48;17.60;99.90
55642;DHT22;41509;53.108;6.100;2023-09-30T11:14:30;17.80;99.90
55642;DHT22;41509;53.108;6.100;2023-09-30T11:17:01;18.00;99.90
55642;DHT22;41509;53.108;6.100;2023-09-30T11:19:49;18.20;99.90
55642;DHT22;41509;53.108;6.100;2023-09-30T11:22:15;18.30;99.90
55642;DHT22;41509;53.108;6.100;2023-09-30T11:24:41;18.40;99.90
55642;DHT22;41509;53.108;6.100;2023-09-30T11:27:07;18.60;99.90
55642;DHT22;41509;53.108;6.100;2023-09-30T11:29:34;18.70;99.90
55642;DHT22;41509;53.108;6.100;2023-09-30T11:32:00;18.80;99.90
55642;DHT22;41509;53.108;6.100;2023-09-30T11:34:36;18.90;99.90
55642;DHT22;41509;53.108;6.100;2023-09-30T11:37:05;18.90;99.90
55642;DHT22;41509;53.108;6.100;2023-09-30T11:39:31;18.90;99.90
55642;DHT22;41509;53.108;6.100;2023-09-30T11:41:59;19.10;99.90
55642;DHT22;41509;53.108;6.100;2023-09-30T11:44:26;19.20;99.90
55642;DHT22;41509;53.108;6.100;2023-09-30T11:47:01;19.30;99.90
55642;DHT22;41509;53.108;6.100;2023-09-30T11:49:39;19.40;99.90
55642;DHT22;41509;53.108;6.100;2023-09-30T11:52:12;19.30;99.90
55642;DHT22;41509;53.108;6.100;2023-09-30T11:54:42;19.30;99.90
55642;DHT22;41509;53.108;6.100;2023-09-30T11:57:15;19.30;99.90
55642;DHT22;41509;53.108;6.100;2023-09-30T11:59:44;19.40;99.90
55642;DHT22;41509;53.108;6.100;2023-09-30T12:02:11;19.40;99.90
55642;DHT22;41509;53.108;6.100;2023-09-30T12:04:38;19.60;99.90
55642;DHT22;41509;53.108;6.100;2023-09-30T12:07:04;19.60;99.90
55642;DHT22;41509;53.108;6.100;2023-09-30T12:09:32;19.70;99.90
55642;DHT22;41509;53.108;6.100;2023-09-30T12:12:00;19.80;99.90
55642;DHT22;41509;53.108;6.100;2023-09-30T12:14:26;19.90;99.90
55642;DHT22;41509;53.108;6.100;2023-09-30T12:16:58;19.90;99.90
55642;DHT22;41509;53.108;6.100;2023-09-30T12:19:23;19.90;99.90
55642;DHT22;41509;53.108;6.100;2023-09-30T12:21:52;19.90;99.90
55642;DHT22;41509;53.108;6.100;2023-09-30T12:24:18;19.80;99.90
55642;DHT22;41509;53.108;6.100;2023-09-30T12:26:47;19.70;99.90
55642;DHT22;41509;53.108;6.100;2023-09-30T12:29:17;19.70;99.90
55642;DHT22;41509;53.108;6.100;2023-09-30T12:31:44;19.70;99.90
55642;DHT22;41509;53.108;6.100;2023-09-30T12:34:10;19.70;99.90
55642;DHT22;41509;53.108;6.100;2023-09-30T12:36:36;19.60;99.90
55642;DHT22;41509;53.108;6.100;2023-09-30T12:39:02;19.50;99.90
55642;DHT22;41509;53.108;6.100;2023-09-30T12:41:43;19.50;99.90
55642;DHT22;41509;53.108;6.100;2023-09-30T12:44:10;19.40;99.90
55642;DHT22;41509;53.108;6.100;2023-09-30T12:46:36;19.30;99.90
55642;DHT22;41509;53.108;6.100;2023-09-30T12:49:08;19.40;99.90
55642;DHT22;41509;53.108;6.100;2023-09-30T12:51:35;19.30;99.90
55642;DHT22;41509;53.108;6.100;2023-09-30T12:54:04;19.40;99.90
55642;DHT22;41509;53.108;6.100;2023-09-30T12:56:33;19.40;99.90
55642;DHT22;41509;53.108;6.100;2023-09-30T12:58:59;19.40;99.90
55642;DHT22;41509;53.108;6.100;2023-09-30T13:01:25;19.50;99.90
55642;DHT22;41509;53.108;6.100;2023-09-30T13:03:51;19.50;99.90
55642;DHT22;41509;53.108;6.100;2023-09-30T13:06:19;19.40;99.90
55642;DHT22;41509;53.108;6.100;2023-09-30T13:08:45;19.40;99.90
55642;DHT22;41509;53.108;6.100;2023-09-30T13:11:14;19.30;99.90
55642;DHT22;41509;53.108;6.100;2023-09-30T13:13:39;19.30;99.90
55642;DHT22;41509;53.108;6.100;2023-09-30T13:16:11;19.30;99.90
55642;DHT22;41509;53.108;6.100;2023-09-30T13:18:36;19.20;99.90
55642;DHT22;41509;53.108;6.100;2023-09-30T13:21:05;19.20;99.90
55642;DHT22;41509;53.108;6.100;2023-09-30T13:23:34;19.20;99.90
55642;DHT22;41509;53.108;6.100;2023-09-30T13:26:01;19.10;99.90
55642;DHT22;41509;53.108;6.100;2023-09-30T13:28:27;19.00;99.90
55642;DHT22;41509;53.108;6.100;2023-09-30T13:30:58;19.00;99.90
55642;DHT22;41509;53.108;6.100;2023-09-30T13:33:29;19.00;99.90
55642;DHT22;41509;53.108;6.100;2023-09-30T13:35:55;18.90;99.90
55642;DHT22;41509;53.108;6.100;2023-09-30T13:38:23;19.00;99.90
55642;DHT22;41509;53.108;6.100;2023-09-30T13:40:49;19.10;99.90
55642;DHT22;41509;53.108;6.100;2023-09-30T13:43:14;19.20;99.90
55642;DHT22;41509;53.108;6.100;2023-09-30T13:45:45;19.30;99.90
55642;DHT22;41509;53.108;6.100;2023-09-30T13:48:11;19.30;99.90
55642;DHT22;41509;53.108;6.100;2023-09-30T13:50:36;19.40;99.90
55642;DHT22;41509;53.108;6.100;2023-09-30T13:53:02;19.40;99.90
55642;DHT22;41509;53.108;6.100;2023-09-30T13:55:28;19.30;99.90
55642;DHT22;41509;53.108;6.100;2023-09-30T13:57:54;19.20;99.90
55642;DHT22;41509;53.108;6.100;2023-09-30T14:00:20;19.20;99.90
55642;DHT22;41509;53.108;6.100;2023-09-30T14:02:46;19.10;99.90
55642;DHT22;41509;53.108;6.100;2023-09-30T14:05:12;19.10;99.90
55642;DHT22;41509;53.108;6.100;2023-09-30T14:07:39;19.00;99.90
55642;DHT22;41509;53.108;6.100;2023-09-30T14:10:06;18.90;99.90
55642;DHT22;41509;53.108;6.100;2023-09-30T14:12:32;18.90;99.90
55642;DHT22;41509;53.108;6.100;2023-09-30T14:14:58;18.90;99.90
55642;DHT22;41509;53.108;6.100;2023-09-30T14:17:24;18.90;99.90
55642;DHT22;41509;53.108;6.100;2023-09-30T14:19:53;18.90;99.90
55642;DHT22;41509;53.108;6.100;2023-09-30T14:22:19;18.90;99.90
55642;DHT22;41509;53.108;6.100;2023-09-30T14:24:44;19.00;99.90
55642;DHT22;41509;53.108;6.100;2023-09-30T14:27:13;19.00;99.90
55642;DHT22;41509;53.108;6.100;2023-09-30T14:29:40;19.10;99.90
55642;DHT22;41509;53.108;6.100;2023-09-30T14:32:07;19.10;99.90
55642;DHT22;41509;53.108;6.100;2023-09-30T14:34:33;19.10;99.90
55642;DHT22;41509;53.108;6.100;2023-09-30T14:36:58;19.00;99.90
55642;DHT22;41509;53.108;6.100;2023-09-30T14:39:24;19.00;99.90
55642;DHT22;41509;53.108;6.100;2023-09-30T14:41:50;19.00;99.90
55642;DHT22;41509;53.108;6.100;2023-09-30T14:44:15;19.00;99.90
55642;DHT22;41509;53.108;6.100;2023-09-30T14:46:42;19.00;99.90
55642;DHT22;41509;53.108;6.100;2023-09-30T14:49:09;18.90;99.90
55642;DHT22;41509;53.108;6.100;2023-09-30T14:51:35;18.90;99.90
55642;DHT22;41509;53.108;6.100;2023-09-30T14:54:06;18.80;99.90
55642;DHT22;41509;53.108;6.100;2023-09-30T14:56:32;18.70;99.90
55642;DHT22;41509;53.108;6.100;2023-09-30T14:58:58;18.70;99.90
55642;DHT22;41509;53.108;6.100;2023-09-30T15:01:27;18.70;99.90
55642;DHT22;41509;53.108;6.100;2023-09-30T15:03:54;18.60;99.90
55642;DHT22;41509;53.108;6.100;2023-09-30T15:06:20;18.70;99.90
55642;DHT22;41509;53.108;6.100;2023-09-30T15:08:52;18.70;99.90
55642;DHT22;41509;53.108;6.100;2023-09-30T15:11:17;18.70;99.90
55642;DHT22;41509;53.108;6.100;2023-09-30T15:13:44;18.70;99.90
55642;DHT22;41509;53.108;6.100;2023-09-30T15:16:19;18.60;99.90
55642;DHT22;41509;53.108;6.100;2023-09-30T15:18:48;18.60;99.90
55642;DHT22;41509;53.108;6.100;2023-09-30T15:21:18;18.60;99.90
55642;DHT22;41509;53.108;6.100;2023-09-30T15:23:45;18.50;99.90
55642;DHT22;41509;53.108;6.100;2023-09-30T15:26:10;18.50;99.90
55642;DHT22;41509;53.108;6.100;2023-09-30T15:28:36;18.50;99.90
55642;DHT22;41509;53.108;6.100;2023-09-30T15:31:02;18.40;99.90
55642;DHT22;41509;53.108;6.100;2023-09-30T15:33:28;18.40;99.90
55642;DHT22;41509;53.108;6.100;2023-09-30T15:35:55;18.40;99.90
55642;DHT22;41509;53.108;6.100;2023-09-30T15:38:20;18.40;99.90
55642;DHT22;41509;53.108;6.100;2023-09-30T15:40:56;18.30;99.90
55642;DHT22;41509;53.108;6.100;2023-09-30T15:43:32;18.40;99.90
55642;DHT22;41509;53.108;6.100;2023-09-30T15:46:04;18.30;99.90
55642;DHT22;41509;53.108;6.100;2023-09-30T15:48:29;18.30;99.90
55642;DHT22;41509;53.108;6.100;2023-09-30T15:50:55;18.30;99.90
55642;DHT22;41509;53.108;6.100;2023-09-30T15:53:21;18.30;99.90
55642;DHT22;41509;53.108;6.100;2023-09-30T15:55:47;18.30;99.90
55642;DHT22;41509;53.108;6.100;2023-09-30T15:58:14;18.20;99.90
55642;DHT22;41509;53.108;6.100;2023-09-30T16:00:40;18.20;99.90